Time;durP1;ratioP1;P1;durP2;ratioP2;P2;SDS_P1;SDS_P2;PMS_P1;PMS_P2;Temp;Humidity;BMP_temperature;BMP_pressure;BME280_temperature;BME280_humidity;BME280_pressure;Samples;Min_cycle;Max_cycle;Signal;HPM_P1;HPM_P2
2023/12/27 00:00:25;;;;;;;10.63;2.72;;;5.80;92.10;;;;;;9177983;19;20388;-74
2023/12/27 00:03:32;;;;;;;7.00;2.30;;;5.70;92.40;;;;;;9174428;19;20014;-74
2023/12/27 00:06:38;;;;;;;7.10;2.45;;;5.70;94.70;;;;;;9178068;19;20015;-69
2023/12/27 00:09:46;;;;;;;5.57;3.15;;;5.70;93.00;;;;;;9176629;19;20006;-69
2023/12/27 00:12:51;;;;;;;12.50;2.95;;;5.60;93.20;;;;;;9171789;19;20018;-72
2023/12/27 00:16:02;;;;;;;10.38;3.25;;;5.60;92.70;;;;;;9177565;19;20026;-70
2023/12/27 00:19:09;;;;;;;5.55;2.42;;;5.80;99.90;;;;;;9176047;19;20030;-69
2023/12/27 00:22:17;;;;;;;10.05;2.78;;;5.60;97.10;;;;;;9177270;19;20018;-69
2023/12/27 00:25:23;;;;;;;5.82;2.45;;;5.50;96.50;;;;;;9175352;19;20056;-69
2023/12/27 00:28:30;;;;;;;5.95;2.53;;;5.60;96.50;;;;;;9174306;19;20015;-69
2023/12/27 00:31:39;;;;;;;40.03;12.07;;;5.50;96.40;;;;;;9176415;19;20341;-69
2023/12/27 00:34:46;;;;;;;65.93;21.33;;;5.50;96.90;;;;;;9175974;19;20029;-70
2023/12/27 00:37:52;;;;;;;41.55;13.32;;;5.50;98.40;;;;;;9175492;19;20468;-69
2023/12/27 00:40:59;;;;;;;10.85;3.78;;;5.50;98.70;;;;;;9177390;19;20484;-69
2023/12/27 00:44:22;;;;;;;9.85;3.45;;;5.50;98.90;;;;;;9176875;19;20395;-70
2023/12/27 00:47:34;;;;;;;7.97;2.60;;;5.40;99.50;;;;;;9175575;19;20846;-69
2023/12/27 00:50:39;;;;;;;7.70;2.33;;;5.40;99.70;;;;;;9177725;19;20773;-69
2023/12/27 00:53:47;;;;;;;8.38;2.40;;;5.40;99.80;;;;;;9175200;19;20368;-70
2023/12/27 00:56:52;;;;;;;6.80;2.22;;;5.30;99.60;;;;;;9176393;19;20086;-70
2023/12/27 01:00:00;;;;;;;3.75;1.70;;;5.30;99.20;;;;;;9177170;19;20014;-71
2023/12/27 01:03:09;;;;;;;2.78;1.73;;;;;;;;;;9170704;19;20021;-69
2023/12/27 01:06:16;;;;;;;6.43;2.55;;;5.30;99.90;;;;;;9175627;19;20345;-69
2023/12/27 01:09:22;;;;;;;22.52;9.10;;;5.20;99.00;;;;;;9177240;19;20535;-69
2023/12/27 01:12:31;;;;;;;56.75;21.45;;;5.20;99.40;;;;;;9176268;19;20037;-70
2023/12/27 01:15:37;;;;;;;26.80;12.00;;;5.20;99.40;;;;;;9174493;19;20388;-70
2023/12/27 01:18:47;;;;;;;32.58;12.77;;;5.10;99.90;;;;;;9174722;19;20018;-76
2023/12/27 01:21:58;;;;;;;28.00;10.30;;;5.30;99.90;;;;;;9176693;19;20007;-75
2023/12/27 01:25:09;;;;;;;31.00;11.43;;;5.10;99.90;;;;;;9175762;19;20021;-75
2023/12/27 01:28:14;;;;;;;28.35;9.85;;;5.00;99.80;;;;;;9174177;19;20579;-75
2023/12/27 01:31:22;;;;;;;17.48;7.15;;;5.00;99.80;;;;;;9174363;19;20022;-74
2023/12/27 01:34:32;;;;;;;11.35;4.25;;;4.90;99.50;;;;;;9171563;19;20014;-75
2023/12/27 01:37:45;;;;;;;13.73;3.67;;;4.90;99.70;;;;;;9174168;19;20006;-75
2023/12/27 01:40:51;;;;;;;15.60;4.72;;;4.90;99.90;;;;;;9175865;19;20372;-75
2023/12/27 01:43:59;;;;;;;20.40;5.18;;;4.90;99.90;;;;;;9175634;19;20015;-75
2023/12/27 01:47:06;;;;;;;10.52;4.05;;;4.80;99.90;;;;;;9174228;19;20018;-75
2023/12/27 01:50:16;;;;;;;6.05;3.35;;;4.80;99.90;;;;;;9174090;19;20018;-76
2023/12/27 01:53:26;;;;;;;8.07;2.42;;;4.80;99.90;;;;;;9174909;19;20022;-75
2023/12/27 01:56:34;;;;;;;5.15;2.38;;;4.80;99.20;;;;;;9175910;19;20021;-75
2023/12/27 01:59:40;;;;;;;15.48;3.58;;;4.80;99.90;;;;;;9173863;19;20022;-75
2023/12/27 02:02:48;;;;;;;9.38;2.95;;;4.80;99.90;;;;;;9168759;19;20527;-74
2023/12/27 02:05:58;;;;;;;11.25;2.85;;;4.70;99.90;;;;;;9174498;19;20044;-76
2023/12/27 02:09:06;;;;;;;7.45;2.70;;;4.70;99.90;;;;;;9169603;19;20040;-77
2023/12/27 02:12:11;;;;;;;3.85;2.28;;;4.70;99.90;;;;;;9172802;19;20018;-75
2023/12/27 02:15:19;;;;;;;7.20;2.60;;;4.60;99.90;;;;;;9172967;19;20018;-75
2023/12/27 02:18:32;;;;;;;11.85;4.53;;;4.60;99.40;;;;;;9172128;19;20022;-75
2023/12/27 02:21:43;;;;;;;8.70;3.53;;;4.60;97.80;;;;;;9174378;19;20480;-75
2023/12/27 02:24:57;;;;;;;6.07;3.42;;;4.60;97.20;;;;;;9174802;19;20103;-77
2023/12/27 02:28:12;;;;;;;4.50;2.45;;;4.40;97.80;;;;;;9172273;19;20651;-69
2023/12/27 02:31:21;;;;;;;8.10;3.35;;;4.50;97.80;;;;;;9173858;19;20014;-70
2023/12/27 02:34:29;;;;;;;62.25;15.02;;;4.50;97.10;;;;;;9173604;19;20094;-69
2023/12/27 02:37:35;;;;;;;52.60;15.95;;;4.50;97.30;;;;;;9172079;19;20019;-71
2023/12/27 02:40:45;;;;;;;66.85;16.95;;;4.50;98.10;;;;;;9171900;19;20015;-70
2023/12/27 02:43:51;;;;;;;32.65;8.57;;;4.40;97.80;;;;;;9176297;19;20018;-69
2023/12/27 02:47:01;;;;;;;22.70;5.80;;;4.40;97.80;;;;;;9179667;19;20025;-70
2023/12/27 02:50:08;;;;;;;6.90;2.75;;;4.40;98.00;;;;;;9175397;19;20023;-70
2023/12/27 02:53:19;;;;;;;5.30;3.20;;;4.40;97.60;;;;;;9178835;19;20060;-71
2023/12/27 02:56:28;;;;;;;12.43;5.05;;;4.40;98.20;;;;;;9177602;19;20016;-71
2023/12/27 02:59:35;;;;;;;19.42;5.97;;;4.40;98.30;;;;;;9180404;19;20014;-69
2023/12/27 03:02:41;;;;;;;22.52;5.90;;;4.40;98.70;;;;;;9177229;19;20489;-73
2023/12/27 03:05:48;;;;;;;12.77;3.92;;;4.40;98.50;;;;;;9179764;19;20674;-69
2023/12/27 03:08:54;;;;;;;5.70;2.05;;;4.40;98.40;;;;;;9180594;19;20018;-71
2023/12/27 03:12:05;;;;;;;3.30;2.30;;;4.50;96.30;;;;;;9180854;19;20022;-70
2023/12/27 03:15:11;;;;;;;7.65;3.33;;;4.40;95.80;;;;;;9179770;19;20018;-69
2023/12/27 03:18:19;;;;;;;9.60;3.65;;;4.40;95.90;;;;;;9180989;19;20018;-70
2023/12/27 03:21:24;;;;;;;7.43;2.85;;;4.40;96.70;;;;;;9180626;19;20017;-71
2023/12/27 03:24:32;;;;;;;6.43;3.20;;;4.40;97.40;;;;;;9179783;19;20025;-70
2023/12/27 03:27:40;;;;;;;8.02;3.22;;;4.40;97.90;;;;;;9180941;19;20014;-70
2023/12/27 03:30:48;;;;;;;12.18;4.43;;;4.40;97.40;;;;;;9180102;19;20010;-70
2023/12/27 03:33:54;;;;;;;20.70;5.50;;;4.40;98.20;;;;;;9180677;19;20014;-70
2023/12/27 03:37:02;;;;;;;34.35;7.47;;;4.40;99.80;;;;;;9181210;19;20431;-70
2023/12/27 03:40:09;;;;;;;14.75;4.75;;;4.40;98.40;;;;;;9180243;19;20048;-69
2023/12/27 03:43:19;;;;;;;9.82;3.97;;;4.40;97.50;;;;;;9178455;19;20425;-70
2023/12/27 03:46:25;;;;;;;12.90;4.32;;;4.40;97.60;;;;;;9178553;19;20044;-71
2023/12/27 03:49:35;;;;;;;7.35;3.55;;;4.40;97.60;;;;;;9176467;19;20023;-69
2023/12/27 03:52:40;;;;;;;13.85;3.38;;;4.40;97.80;;;;;;9178423;19;20019;-72
2023/12/27 03:55:48;;;;;;;22.50;5.53;;;4.30;97.40;;;;;;9178235;19;20022;-70
2023/12/27 03:58:56;;;;;;;28.48;6.63;;;4.40;98.00;;;;;;9181180;19;20011;-71
2023/12/27 04:02:04;;;;;;;16.90;5.22;;;4.40;99.90;;;;;;9175426;19;20025;-70
2023/12/27 04:05:12;;;;;;;14.65;4.05;;;4.40;98.60;;;;;;9179749;19;20030;-70
2023/12/27 04:08:20;;;;;;;17.10;3.78;;;4.40;98.40;;;;;;9179246;19;20030;-71
2023/12/27 04:11:25;;;;;;;8.75;3.63;;;4.40;97.90;;;;;;9178097;19;20022;-71
2023/12/27 04:14:36;;;;;;;15.43;3.92;;;4.40;97.10;;;;;;9178999;19;20031;-71
2023/12/27 04:17:42;;;;;;;8.13;3.13;;;4.30;97.50;;;;;;9177375;19;20028;-71
2023/12/27 04:20:49;;;;;;;7.07;3.97;;;4.30;97.50;;;;;;9177414;19;20034;-70
2023/12/27 04:23:55;;;;;;;18.98;5.95;;;4.30;97.20;;;;;;9178215;19;20019;-71
2023/12/27 04:27:05;;;;;;;9.27;4.03;;;4.30;97.00;;;;;;9179233;19;20018;-71
2023/12/27 04:30:16;;;;;;;11.70;3.90;;;4.30;97.00;;;;;;9176229;19;20497;-71
2023/12/27 04:33:24;;;;;;;19.13;6.00;;;4.30;96.50;;;;;;9176093;19;20014;-72
2023/12/27 04:36:30;;;;;;;16.17;4.68;;;4.30;96.00;;;;;;9178362;19;20025;-72
2023/12/27 04:39:38;;;;;;;15.25;5.03;;;4.40;95.90;;;;;;9178417;19;20022;-70
2023/12/27 04:42:43;;;;;;;10.45;3.63;;;4.30;95.90;;;;;;9177952;19;20763;-73
2023/12/27 04:45:56;;;;;;;12.70;4.53;;;4.30;95.90;;;;;;9177573;19;20416;-71
2023/12/27 04:49:03;;;;;;;11.32;4.25;;;4.40;96.20;;;;;;9175359;19;20014;-75
2023/12/27 04:52:16;;;;;;;11.43;3.57;;;4.40;95.90;;;;;;9177750;19;20491;-76
2023/12/27 04:55:21;;;;;;;7.38;3.42;;;4.40;95.50;;;;;;9175856;19;20014;-76
2023/12/27 04:58:29;;;;;;;19.85;4.10;;;4.40;95.80;;;;;;9175881;19;20029;-75
2023/12/27 05:01:37;;;;;;;16.67;4.78;;;4.40;96.00;;;;;;9177769;19;20025;-75
2023/12/27 05:04:45;;;;;;;19.08;5.22;;;4.40;96.30;;;;;;9171353;19;20010;-76
2023/12/27 05:07:51;;;;;;;17.70;5.35;;;4.40;96.10;;;;;;9175066;19;20015;-76
2023/12/27 05:10:58;;;;;;;11.52;4.07;;;4.40;95.90;;;;;;9174292;19;20022;-76
2023/12/27 05:14:04;;;;;;;13.95;5.38;;;4.40;95.60;;;;;;9175327;19;20021;-76
2023/12/27 05:17:14;;;;;;;10.38;4.40;;;4.50;95.70;;;;;;9173631;19;20018;-74
2023/12/27 05:20:20;;;;;;;13.05;4.80;;;4.40;95.40;;;;;;9175010;19;20022;-75
2023/12/27 05:23:27;;;;;;;18.98;4.85;;;4.60;95.70;;;;;;9174615;19;20381;-76
2023/12/27 05:26:33;;;;;;;10.27;4.32;;;4.50;95.70;;;;;;9175561;19;20014;-75
2023/12/27 05:29:41;;;;;;;19.30;5.53;;;4.50;95.40;;;;;;9174108;19;20369;-76
2023/12/27 05:32:50;;;;;;;8.00;4.45;;;4.50;95.60;;;;;;9174665;19;20093;-76
2023/12/27 05:35:57;;;;;;;9.57;4.13;;;4.50;95.40;;;;;;9176104;19;20365;-74
2023/12/27 05:39:03;;;;;;;18.30;4.22;;;4.50;95.90;;;;;;9174629;19;20358;-76
2023/12/27 05:42:13;;;;;;;14.95;4.85;;;4.50;95.80;;;;;;9176038;19;20029;-74
2023/12/27 05:45:19;;;;;;;10.35;4.68;;;4.50;95.70;;;;;;9176568;19;20007;-76
2023/12/27 05:48:29;;;;;;;13.18;4.53;;;4.60;96.00;;;;;;9175386;19;20018;-75
2023/12/27 05:51:34;;;;;;;9.65;5.38;;;4.60;96.40;;;;;;9173521;19;20025;-76
2023/12/27 05:54:42;;;;;;;19.88;5.20;;;4.50;95.60;;;;;;9175609;19;20022;-74
2023/12/27 05:57:48;;;;;;;11.13;4.90;;;4.60;95.50;;;;;;9174832;19;20481;-70
2023/12/27 06:00:56;;;;;;;15.43;5.70;;;4.60;95.60;;;;;;9175452;19;20357;-70
2023/12/27 06:04:06;;;;;;;12.20;4.97;;;4.60;95.40;;;;;;9171087;19;20018;-71
2023/12/27 06:07:13;;;;;;;14.85;5.97;;;4.60;95.60;;;;;;9173071;19;20024;-71
2023/12/27 06:10:20;;;;;;;11.38;5.60;;;4.60;95.50;;;;;;9172431;19;20014;-71
2023/12/27 06:13:27;;;;;;;12.70;5.50;;;4.70;95.40;;;;;;9174220;19;20018;-70
2023/12/27 06:16:34;;;;;;;13.40;5.78;;;4.70;95.70;;;;;;9175519;19;20034;-70
2023/12/27 06:19:44;;;;;;;14.88;5.45;;;4.80;95.60;;;;;;9181485;19;20025;-73
2023/12/27 06:22:50;;;;;;;16.30;6.32;;;4.70;96.60;;;;;;9184145;19;20021;-72
2023/12/27 06:25:58;;;;;;;15.40;6.20;;;4.80;95.80;;;;;;9184853;19;20029;-70
2023/12/27 06:29:03;;;;;;;14.13;6.25;;;4.80;96.10;;;;;;9183073;19;20014;-73
2023/12/27 06:32:12;;;;;;;21.98;7.50;;;4.80;96.00;;;;;;9180878;19;20021;-71
2023/12/27 06:35:21;;;;;;;22.80;6.47;;;4.80;96.60;;;;;;9183398;19;20007;-70
2023/12/27 06:38:29;;;;;;;23.10;5.75;;;5.00;96.40;;;;;;9181998;19;20025;-72
2023/12/27 06:41:34;;;;;;;16.85;6.30;;;4.80;95.80;;;;;;9184079;19;20097;-71
2023/12/27 06:44:42;;;;;;;20.30;6.00;;;4.90;95.80;;;;;;9183183;19;20029;-72
2023/12/27 06:47:48;;;;;;;11.65;5.15;;;5.00;96.00;;;;;;9183122;19;20018;-71
2023/12/27 06:50:59;;;;;;;20.83;5.78;;;5.00;96.20;;;;;;9182237;19;20026;-70
2023/12/27 06:54:05;;;;;;;16.27;6.57;;;4.90;96.20;;;;;;9183053;19;20018;-70
2023/12/27 06:57:12;;;;;;;17.73;6.65;;;5.00;96.10;;;;;;9182890;19;20488;-70
2023/12/27 07:00:19;;;;;;;19.67;6.28;;;5.10;95.80;;;;;;9181661;19;20049;-70
2023/12/27 07:03:27;;;;;;;9.60;5.50;;;5.00;95.70;;;;;;9177822;19;20374;-71
2023/12/27 07:06:35;;;;;;;16.60;6.53;;;5.00;95.60;;;;;;9179616;19;20021;-76
2023/12/27 07:09:43;;;;;;;21.10;5.38;;;5.20;96.00;;;;;;9180530;19;20022;-72
2023/12/27 07:12:48;;;;;;;16.00;5.80;;;5.10;95.90;;;;;;9179502;19;20028;-73
2023/12/27 07:15:56;;;;;;;13.52;5.55;;;5.20;96.00;;;;;;9181970;19;20025;-73
2023/12/27 07:19:01;;;;;;;15.63;5.68;;;5.20;95.80;;;;;;9180422;19;20010;-73
2023/12/27 07:22:13;;;;;;;18.40;6.07;;;5.20;96.00;;;;;;9181487;19;20356;-72
2023/12/27 07:25:19;;;;;;;14.95;7.10;;;5.40;96.20;;;;;;9181947;19;20021;-72
2023/12/27 07:28:26;;;;;;;18.65;5.80;;;5.30;95.60;;;;;;9179548;19;20018;-72
2023/12/27 07:31:32;;;;;;;19.35;6.78;;;5.20;95.70;;;;;;9174859;19;20018;-71
2023/12/27 07:34:39;;;;;;;15.70;5.90;;;5.30;95.90;;;;;;9181433;19;20015;-72
2023/12/27 07:37:48;;;;;;;20.75;6.53;;;5.40;95.50;;;;;;9180958;19;20018;-72
2023/12/27 07:40:56;;;;;;;22.20;6.13;;;5.40;95.70;;;;;;9181741;19;20341;-72
2023/12/27 07:44:01;;;;;;;21.48;6.70;;;5.30;95.70;;;;;;9181355;19;20018;-72
2023/12/27 07:47:09;;;;;;;24.60;8.45;;;5.30;95.90;;;;;;9181650;19;20018;-72
2023/12/27 07:50:15;;;;;;;18.13;7.40;;;5.40;95.60;;;;;;9178430;19;20044;-72
2023/12/27 07:53:28;;;;;;;30.73;7.80;;;5.30;96.00;;;;;;9180779;19;20014;-72
2023/12/27 07:56:37;;;;;;;18.27;6.97;;;5.60;96.00;;;;;;9178780;19;20017;-72
2023/12/27 07:59:46;;;;;;;24.67;7.63;;;5.50;95.90;;;;;;9179428;19;20018;-71
2023/12/27 08:02:53;;;;;;;30.40;8.00;;;5.50;96.00;;;;;;9175414;19;20033;-72
2023/12/27 08:06:00;;;;;;;27.00;7.32;;;5.70;96.40;;;;;;9178936;19;20029;-72
2023/12/27 08:09:11;;;;;;;14.32;6.63;;;5.80;96.30;;;;;;9179542;19;20082;-72
2023/12/27 08:12:19;;;;;;;21.05;6.55;;;5.60;96.10;;;;;;9173248;19;20026;-72
2023/12/27 08:15:25;;;;;;;25.70;6.70;;;5.60;96.20;;;;;;9175702;19;20107;-72
2023/12/27 08:18:32;;;;;;;15.55;6.35;;;5.70;96.10;;;;;;9175896;19;20360;-73
2023/12/27 08:21:38;;;;;;;19.17;6.85;;;5.70;96.20;;;;;;9177997;19;20472;-74
2023/12/27 08:24:48;;;;;;;16.23;6.35;;;5.80;96.10;;;;;;9177856;19;20014;-73
2023/12/27 08:27:57;;;;;;;23.35;6.60;;;5.80;96.10;;;;;;9172975;19;20019;-74
2023/12/27 08:31:06;;;;;;;28.05;6.40;;;5.80;96.00;;;;;;9177170;19;20025;-73
2023/12/27 08:34:12;;;;;;;22.95;5.82;;;5.80;96.20;;;;;;9177849;19;20026;-73
2023/12/27 08:37:27;;;;;;;25.80;6.85;;;5.90;96.40;;;;;;9174704;19;20025;-73
2023/12/27 08:40:39;;;;;;;19.45;6.78;;;5.70;96.30;;;;;;9173680;19;20027;-73
2023/12/27 08:43:47;;;;;;;24.65;6.38;;;6.10;96.00;;;;;;9176554;19;20021;-73
2023/12/27 08:46:53;;;;;;;21.75;6.22;;;6.10;96.30;;;;;;9176067;19;20010;-73
2023/12/27 08:50:02;;;;;;;24.25;6.45;;;6.00;96.10;;;;;;9174676;19;20018;-73
2023/12/27 08:53:13;;;;;;;27.65;7.25;;;6.10;96.40;;;;;;9175075;19;21611;-74
2023/12/27 08:56:23;;;;;;;18.63;7.05;;;6.10;96.50;;;;;;9174350;19;20025;-76
2023/12/27 08:59:29;;;;;;;20.15;6.70;;;6.20;96.00;;;;;;9175222;19;20017;-73
2023/12/27 09:02:37;;;;;;;27.40;7.53;;;6.30;96.20;;;;;;9169024;19;20010;-73
2023/12/27 09:05:42;;;;;;;23.70;7.78;;;6.20;96.10;;;;;;9174560;19;20018;-73
2023/12/27 09:08:50;;;;;;;20.52;7.45;;;6.20;96.40;;;;;;9175471;19;20026;-71
2023/12/27 09:11:59;;;;;;;27.77;7.47;;;6.30;96.40;;;;;;9174900;19;20858;-71
2023/12/27 09:15:19;;;;;;;29.25;8.23;;;6.30;96.30;;;;;;9176439;19;20026;-71
2023/12/27 09:18:29;;;;;;;24.33;7.05;;;6.30;96.00;;;;;;9175657;19;20089;-71
2023/12/27 09:21:44;;;;;;;19.30;7.65;;;6.50;96.60;;;;;;9173808;19;20018;-71
2023/12/27 09:24:49;;;;;;;19.42;7.78;;;6.40;96.30;;;;;;9173318;19;20025;-71
2023/12/27 09:28:00;;;;;;;22.55;7.90;;;6.40;96.20;;;;;;9174793;19;20024;-70
2023/12/27 09:31:06;;;;;;;28.85;8.00;;;6.40;96.20;;;;;;9174996;19;20415;-70
2023/12/27 09:34:14;;;;;;;25.02;8.07;;;6.40;96.20;;;;;;9172843;19;20018;-70
2023/12/27 09:37:23;;;;;;;30.20;8.18;;;6.40;96.30;;;;;;9172677;19;20479;-69
2023/12/27 09:40:31;;;;;;;20.75;7.80;;;6.50;96.40;;;;;;9175426;19;20022;-70
2023/12/27 09:43:42;;;;;;;28.95;8.27;;;6.60;96.30;;;;;;9174381;19;20091;-72
2023/12/27 09:46:50;;;;;;;21.55;7.25;;;6.60;96.40;;;;;;9173898;19;20018;-70
2023/12/27 09:49:57;;;;;;;20.75;7.75;;;6.60;96.20;;;;;;9174149;19;20014;-70
2023/12/27 09:53:05;;;;;;;25.95;7.97;;;6.70;96.50;;;;;;9169974;19;20021;-70
2023/12/27 09:56:11;;;;;;;21.95;7.72;;;6.60;96.70;;;;;;9173307;19;20499;-69
2023/12/27 09:59:27;;;;;;;19.88;6.72;;;6.70;97.10;;;;;;9169668;19;20491;-72
2023/12/27 10:02:36;;;;;;;26.58;9.43;;;6.70;97.10;;;;;;9169941;19;20022;-70
2023/12/27 10:05:52;;;;;;;27.35;8.20;;;6.90;97.10;;;;;;9173207;19;20464;-71
2023/12/27 10:08:58;;;;;;;29.90;8.27;;;6.80;97.00;;;;;;9173765;19;20021;-70
2023/12/27 10:12:07;;;;;;;22.58;8.55;;;6.80;97.10;;;;;;9170783;19;20546;-70
2023/12/27 10:15:15;;;;;;;23.67;8.63;;;6.80;97.00;;;;;;9174147;19;20357;-69
2023/12/27 10:18:23;;;;;;;22.48;8.05;;;6.90;97.20;;;;;;9172975;19;20010;-68
2023/12/27 10:21:29;;;;;;;16.55;7.30;;;6.90;97.00;;;;;;9170938;19;20006;-70
2023/12/27 10:24:37;;;;;;;21.40;8.48;;;7.00;97.00;;;;;;9171856;19;20021;-71
2023/12/27 10:27:42;;;;;;;33.50;8.75;;;7.00;97.10;;;;;;9170658;19;20015;-72
2023/12/27 10:30:53;;;;;;;27.85;8.40;;;7.00;97.30;;;;;;9169391;19;20014;-71
2023/12/27 10:34:02;;;;;;;26.63;8.45;;;7.00;97.10;;;;;;9169027;19;20060;-71
2023/12/27 10:37:13;;;;;;;26.33;7.30;;;7.00;97.20;;;;;;9172535;19;20026;-71
2023/12/27 10:40:23;;;;;;;22.05;8.15;;;7.10;97.50;;;;;;9174037;19;20663;-71
2023/12/27 10:43:31;;;;;;;18.95;8.32;;;7.00;97.10;;;;;;9173116;19;20006;-71
2023/12/27 10:46:39;;;;;;;27.75;7.72;;;7.10;97.20;;;;;;9171551;19;20090;-71
2023/12/27 10:49:49;;;;;;;25.05;8.90;;;7.10;97.20;;;;;;9173317;19;20007;-71
2023/12/27 10:53:06;;;;;;;16.25;7.78;;;7.20;97.50;;;;;;9168989;19;20086;-71
2023/12/27 10:56:17;;;;;;;26.60;7.82;;;7.10;97.10;;;;;;9170517;19;20500;-71
2023/12/27 10:59:23;;;;;;;18.83;7.32;;;7.20;96.90;;;;;;9173044;19;20025;-70
2023/12/27 11:02:33;;;;;;;25.20;9.55;;;7.20;97.30;;;;;;9167466;19;20026;-72
2023/12/27 11:05:40;;;;;;;16.33;8.07;;;7.30;97.20;;;;;;9176599;19;20479;-71
2023/12/27 11:08:49;;;;;;;23.85;8.13;;;7.30;97.30;;;;;;9179300;19;20654;-71
2023/12/27 11:11:57;;;;;;;17.90;7.32;;;7.30;97.30;;;;;;9179238;19;20017;-73
2023/12/27 11:15:07;;;;;;;14.32;7.88;;;7.40;97.30;;;;;;9180983;19;20010;-71
2023/12/27 11:18:16;;;;;;;21.50;8.65;;;7.40;97.40;;;;;;9180706;19;20011;-71
2023/12/27 11:21:23;;;;;;;24.60;8.45;;;7.40;97.20;;;;;;9180784;19;20467;-73
2023/12/27 11:24:32;;;;;;;21.52;8.18;;;7.50;97.10;;;;;;9181426;19;20010;-71
2023/12/27 11:27:42;;;;;;;18.38;7.70;;;7.50;97.20;;;;;;9181727;19;20495;-71
2023/12/27 11:30:48;;;;;;;14.68;7.53;;;7.50;97.20;;;;;;9181577;19;20092;-72
2023/12/27 11:33:58;;;;;;;23.30;8.73;;;7.50;97.30;;;;;;9177028;19;20019;-72
2023/12/27 11:37:04;;;;;;;14.18;8.63;;;7.60;97.00;;;;;;9179076;19;20022;-72
2023/12/27 11:40:13;;;;;;;17.02;7.90;;;7.60;97.20;;;;;;9179388;19;20002;-72
2023/12/27 11:43:22;;;;;;;22.55;8.35;;;7.60;97.00;;;;;;9178935;19;20423;-72
2023/12/27 11:46:31;;;;;;;16.20;7.50;;;7.70;97.10;;;;;;9180107;19;20029;-72
2023/12/27 11:49:39;;;;;;;14.18;8.18;;;7.70;97.30;;;;;;9178291;19;20021;-72
2023/12/27 11:52:49;;;;;;;20.58;8.48;;;7.80;96.90;;;;;;9175546;19;20018;-73
2023/12/27 11:56:08;;;;;;;23.75;9.32;;;7.70;97.10;;;;;;9175264;19;20026;-74
2023/12/27 11:59:17;;;;;;;16.65;8.52;;;7.80;97.00;;;;;;9178467;19;20663;-72
2023/12/27 12:02:28;;;;;;;20.42;8.80;;;7.90;97.20;;;;;;9172355;19;20024;-73
2023/12/27 12:05:59;;;;;;;20.75;8.57;;;8.20;97.30;;;;;;9177364;19;20052;-73
2023/12/27 12:09:11;;;;;;;19.58;8.45;;;8.00;97.30;;;;;;9167396;19;20023;-72
2023/12/27 12:12:19;;;;;;;25.02;8.57;;;8.20;96.90;;;;;;9175020;19;20018;-72
2023/12/27 12:15:29;;;;;;;16.98;8.98;;;8.10;96.90;;;;;;9174695;19;20030;-72
2023/12/27 12:18:39;;;;;;;20.08;7.60;;;8.00;96.90;;;;;;9176099;19;20010;-72
2023/12/27 12:21:51;;;;;;;18.63;7.82;;;8.20;97.00;;;;;;9178493;19;20460;-72
2023/12/27 12:25:08;;;;;;;16.52;8.13;;;8.20;96.90;;;;;;9178428;19;20026;-72
2023/12/27 12:28:16;;;;;;;14.60;7.93;;;8.30;96.90;;;;;;9178163;19;20067;-72
2023/12/27 12:31:23;;;;;;;21.58;8.40;;;8.40;97.10;;;;;;9175487;19;20037;-72
2023/12/27 12:34:31;;;;;;;17.40;8.32;;;8.30;96.70;;;;;;9172592;19;20014;-71
2023/12/27 12:37:51;;;;;;;17.88;8.18;;;8.40;97.00;;;;;;9175778;19;20014;-72
2023/12/27 12:41:05;;;;;;;13.15;6.78;;;8.40;96.90;;;;;;9175343;19;20025;-74
2023/12/27 12:44:28;;;;;;;13.30;7.45;;;8.50;97.00;;;;;;9170237;19;20015;-72
2023/12/27 12:47:35;;;;;;;15.68;6.95;;;8.50;96.80;;;;;;9174219;19;20025;-72
2023/12/27 12:50:45;;;;;;;15.55;7.00;;;8.60;96.80;;;;;;9176926;19;20025;-72
2023/12/27 12:53:57;;;;;;;15.00;7.28;;;8.60;96.90;;;;;;9174984;19;20041;-72
2023/12/27 12:57:05;;;;;;;11.80;6.53;;;9.00;96.60;;;;;;9176957;19;20369;-68
2023/12/27 13:00:12;;;;;;;12.38;6.70;;;8.60;96.80;;;;;;9177120;19;20047;-68
2023/12/27 13:03:21;;;;;;;14.00;5.78;;;8.70;96.50;;;;;;9171199;19;20029;-69
2023/12/27 13:06:27;;;;;;;14.60;5.65;;;8.50;96.70;;;;;;9174990;19;20376;-69
2023/12/27 13:10:02;;;;;;;14.10;5.88;;;8.80;96.50;;;;;;9173362;19;20011;-68
2023/12/27 13:13:09;;;;;;;15.45;5.38;;;8.80;96.50;;;;;;9174822;19;20035;-68
2023/12/27 13:16:18;;;;;;;9.20;4.80;;;8.80;96.80;;;;;;9175685;19;20014;-69
2023/12/27 13:19:24;;;;;;;10.25;5.28;;;8.90;96.70;;;;;;9170564;19;20735;-70
2023/12/27 13:22:36;;;;;;;11.77;4.43;;;9.00;97.00;;;;;;9174993;19;20022;-68
2023/12/27 13:25:45;;;;;;;7.38;4.03;;;9.10;97.30;;;;;;9176183;19;20018;-69
2023/12/27 13:28:52;;;;;;;8.88;3.53;;;9.10;96.90;;;;;;9172850;19;20014;-68
2023/12/27 13:31:58;;;;;;;8.73;3.60;;;9.20;96.90;;;;;;9173938;19;20030;-69
2023/12/27 13:35:06;;;;;;;18.88;6.68;;;9.10;96.70;;;;;;9173787;19;20368;-69
2023/12/27 13:38:12;;;;;;;10.75;3.92;;;9.10;96.80;;;;;;9173596;19;20014;-68
2023/12/27 13:41:22;;;;;;;9.25;3.65;;;9.20;96.70;;;;;;9174361;19;20871;-68
2023/12/27 13:44:29;;;;;;;10.60;3.33;;;9.20;96.50;;;;;;9173434;19;20019;-69
2023/12/27 13:47:36;;;;;;;8.18;3.92;;;9.40;96.70;;;;;;9173654;19;20026;-68
2023/12/27 13:50:42;;;;;;;10.75;3.80;;;9.40;96.70;;;;;;9174895;19;20022;-69
2023/12/27 13:53:50;;;;;;;15.38;3.53;;;9.40;96.70;;;;;;9173492;19;20029;-73
2023/12/27 13:56:58;;;;;;;10.45;4.10;;;9.40;96.70;;;;;;9175145;19;20018;-69
2023/12/27 14:00:08;;;;;;;10.68;3.33;;;9.40;96.70;;;;;;9174011;19;20491;-70
2023/12/27 14:03:19;;;;;;;;;;;9.40;96.50;;;;;;9171729;19;20380;-68
2023/12/27 14:06:28;;;;;;;8.95;3.22;;;9.40;96.70;;;;;;9171331;19;19930;-69
2023/12/27 14:09:34;;;;;;;12.70;4.28;;;9.50;96.60;;;;;;9163464;19;20054;-73
2023/12/27 14:12:44;;;;;;;8.27;2.97;;;9.50;96.70;;;;;;9162872;19;20421;-72
2023/12/27 14:15:53;;;;;;;9.60;3.10;;;9.60;96.70;;;;;;9159253;19;20018;-72
2023/12/27 14:19:05;;;;;;;8.27;2.72;;;9.60;96.50;;;;;;9174235;19;20015;-72
2023/12/27 14:22:11;;;;;;;8.05;3.60;;;9.70;96.70;;;;;;9170204;19;20011;-74
2023/12/27 14:25:19;;;;;;;11.63;3.22;;;9.70;96.60;;;;;;9174637;19;20010;-73
2023/12/27 14:28:33;;;;;;;7.57;2.83;;;9.60;96.60;;;;;;9171259;19;20014;-73
2023/12/27 14:31:40;;;;;;;8.65;2.35;;;9.70;96.80;;;;;;9172368;19;20022;-72
2023/12/27 14:34:46;;;;;;;8.73;2.58;;;9.80;96.40;;;;;;9173805;19;20026;-72
2023/12/27 14:37:54;;;;;;;9.60;2.50;;;9.70;96.30;;;;;;9171807;19;20010;-72
2023/12/27 14:41:00;;;;;;;22.65;3.03;;;9.80;96.40;;;;;;9179191;19;20026;-72
2023/12/27 14:44:11;;;;;;;8.55;2.33;;;9.70;96.40;;;;;;9180511;19;20358;-72
2023/12/27 14:47:17;;;;;;;6.82;2.40;;;9.80;96.40;;;;;;9181535;19;20338;-72
2023/12/27 14:50:24;;;;;;;4.70;2.40;;;9.80;96.60;;;;;;9178332;19;20485;-72
2023/12/27 14:53:31;;;;;;;5.93;2.80;;;9.80;96.40;;;;;;9179920;19;20044;-72
2023/12/27 14:56:38;;;;;;;7.22;2.47;;;9.70;96.30;;;;;;9173419;19;20025;-72
2023/12/27 14:59:48;;;;;;;7.40;2.30;;;9.80;96.30;;;;;;9179193;19;20133;-72
2023/12/27 15:02:59;;;;;;;7.68;2.65;;;9.90;96.40;;;;;;9176528;19;20015;-72
2023/12/27 15:06:06;;;;;;;11.32;2.90;;;10.00;96.50;;;;;;9177841;19;20018;-72
2023/12/27 15:09:18;;;;;;;9.47;2.47;;;9.90;96.30;;;;;;9180433;19;20026;-73
2023/12/27 15:12:28;;;;;;;9.32;2.42;;;9.80;96.20;;;;;;9175874;19;20022;-72
2023/12/27 15:15:53;;;;;;;5.70;2.65;;;10.00;96.20;;;;;;9176920;19;20018;-73
2023/12/27 15:19:00;;;;;;;7.35;2.55;;;10.10;96.40;;;;;;9176044;19;20475;-74
2023/12/27 15:22:11;;;;;;;5.65;3.10;;;10.00;96.30;;;;;;9173832;19;20561;-74
2023/12/27 15:25:17;;;;;;;7.82;3.03;;;10.10;96.70;;;;;;9179143;19;20015;-74
2023/12/27 15:28:29;;;;;;;7.80;2.40;;;9.80;96.40;;;;;;9178207;19;20030;-73
2023/12/27 15:31:43;;;;;;;15.05;4.90;;;10.00;96.30;;;;;;9178354;19;20015;-73
2023/12/27 15:34:56;;;;;;;11.07;3.80;;;9.90;96.70;;;;;;9177956;19;20015;-74
2023/12/27 15:38:02;;;;;;;16.63;4.68;;;10.00;96.40;;;;;;9173887;19;20020;-74
2023/12/27 15:41:20;;;;;;;9.02;3.08;;;10.00;96.30;;;;;;9177807;19;20480;-73
2023/12/27 15:44:26;;;;;;;13.02;3.45;;;9.90;96.50;;;;;;9178188;19;20021;-73
2023/12/27 15:47:36;;;;;;;6.60;2.75;;;9.80;96.00;;;;;;9178206;19;20479;-73
2023/12/27 15:50:42;;;;;;;13.90;2.90;;;9.90;96.30;;;;;;9174790;19;20015;-73
2023/12/27 15:53:50;;;;;;;7.00;2.70;;;9.80;96.40;;;;;;9176135;19;20480;-73
2023/12/27 15:56:55;;;;;;;6.40;2.35;;;9.90;96.40;;;;;;9175753;19;20010;-73
2023/12/27 16:00:05;;;;;;;6.43;2.53;;;9.90;96.10;;;;;;9177339;19;20019;-73
2023/12/27 16:03:13;;;;;;;14.68;2.90;;;10.00;96.30;;;;;;9173440;19;20535;-73
2023/12/27 16:06:22;;;;;;;5.15;2.08;;;9.90;96.20;;;;;;9173913;19;20010;-73
2023/12/27 16:09:33;;;;;;;11.72;2.86;;;9.80;96.30;;;;;;9021899;19;2821393;-73
2023/12/27 16:12:40;;;;;;;9.07;2.10;;;10.00;96.40;;;;;;9179978;19;20085;-73
2023/12/27 16:15:52;;;;;;;6.57;2.72;;;9.90;96.30;;;;;;9172721;19;20022;-73
2023/12/27 16:19:02;;;;;;;10.77;3.67;;;9.80;96.10;;;;;;9177712;19;20013;-74
2023/12/27 16:22:15;;;;;;;11.05;2.80;;;9.90;96.40;;;;;;9177129;19;20026;-74
2023/12/27 16:25:23;;;;;;;11.45;2.95;;;10.90;96.70;;;;;;9178262;19;20495;-73